Terminal Aerodrome Forecast
Issued by NWS New Orleans/Baton Rouge, LA

Home | Current Version | Previous Version | Text Only | Print | Product List | Glossary On
Versions: 1 2 3 4 5 6 7 8 9 10 11 12 13 14 15 16 17 18 19 20 21
000
FTUS44 KLIX 241120
TAFBTR
TAF
KBTR 241120Z 2412/2512 15006KT 1/2SM FG OVC003
      TEMPO 2412/2413 1/4SM FG
     FM241300 16006KT P6SM BKN008
     FM241600 19010KT P6SM BKN040
     FM250300 24007KT P6SM OVC010
     FM250700 31008KT P6SM BKN040=

USA.gov is the U.S. government's official web portal to all federal, state and local government web resources and services.